sensor_id;sensor_type;location;lat;lon;timestamp;P1;durP1;ratioP1;P2;durP2;ratioP2
37971;SDS011;23794;48.234;8.344;2022-12-05T00:01:14;15.93;;;9.90;;
37971;SDS011;23794;48.234;8.344;2022-12-05T00:03:41;16.65;;;9.43;;
37971;SDS011;23794;48.234;8.344;2022-12-05T00:06:08;15.15;;;9.15;;
37971;SDS011;23794;48.234;8.344;2022-12-05T00:08:35;11.00;;;7.03;;
37971;SDS011;23794;48.234;8.344;2022-12-05T00:11:02;11.07;;;7.22;;
37971;SDS011;23794;48.234;8.344;2022-12-05T00:13:28;12.48;;;7.28;;
37971;SDS011;23794;48.234;8.344;2022-12-05T00:15:55;13.20;;;8.00;;
37971;SDS011;23794;48.234;8.344;2022-12-05T00:18:22;19.33;;;9.75;;
37971;SDS011;23794;48.234;8.344;2022-12-05T00:20:48;11.80;;;7.50;;
37971;SDS011;23794;48.234;8.344;2022-12-05T00:23:15;16.45;;;9.20;;
37971;SDS011;23794;48.234;8.344;2022-12-05T00:25:42;15.73;;;9.15;;
37971;SDS011;23794;48.234;8.344;2022-12-05T00:28:08;15.32;;;8.57;;
37971;SDS011;23794;48.234;8.344;2022-12-05T00:30:38;16.25;;;9.27;;
37971;SDS011;23794;48.234;8.344;2022-12-05T00:33:05;10.32;;;6.28;;
37971;SDS011;23794;48.234;8.344;2022-12-05T00:35:32;19.13;;;9.02;;
37971;SDS011;23794;48.234;8.344;2022-12-05T00:37:59;10.93;;;7.00;;
37971;SDS011;23794;48.234;8.344;2022-12-05T00:40:26;14.68;;;8.05;;
37971;SDS011;23794;48.234;8.344;2022-12-05T00:42:53;11.35;;;7.35;;
37971;SDS011;23794;48.234;8.344;2022-12-05T00:45:19;12.63;;;7.63;;
37971;SDS011;23794;48.234;8.344;2022-12-05T00:47:46;11.85;;;8.05;;
37971;SDS011;23794;48.234;8.344;2022-12-05T00:50:13;10.90;;;6.85;;
37971;SDS011;23794;48.234;8.344;2022-12-05T00:52:40;10.07;;;6.70;;
37971;SDS011;23794;48.234;8.344;2022-12-05T00:55:07;14.80;;;8.10;;
37971;SDS011;23794;48.234;8.344;2022-12-05T00:57:34;11.85;;;7.50;;
37971;SDS011;23794;48.234;8.344;2022-12-05T01:00:01;13.63;;;8.18;;
37971;SDS011;23794;48.234;8.344;2022-12-05T01:02:28;13.35;;;8.10;;
37971;SDS011;23794;48.234;8.344;2022-12-05T01:04:55;13.25;;;8.07;;
37971;SDS011;23794;48.234;8.344;2022-12-05T01:07:22;11.02;;;6.78;;
37971;SDS011;23794;48.234;8.344;2022-12-05T01:09:49;12.98;;;7.40;;
37971;SDS011;23794;48.234;8.344;2022-12-05T01:12:15;18.67;;;9.98;;
37971;SDS011;23794;48.234;8.344;2022-12-05T01:14:42;19.20;;;9.88;;
37971;SDS011;23794;48.234;8.344;2022-12-05T01:17:09;16.80;;;8.80;;
37971;SDS011;23794;48.234;8.344;2022-12-05T01:19:35;15.68;;;8.68;;
37971;SDS011;23794;48.234;8.344;2022-12-05T01:22:02;12.88;;;7.70;;
37971;SDS011;23794;48.234;8.344;2022-12-05T01:24:29;12.38;;;7.95;;
37971;SDS011;23794;48.234;8.344;2022-12-05T01:26:56;10.02;;;6.45;;
37971;SDS011;23794;48.234;8.344;2022-12-05T01:29:23;14.50;;;8.25;;
37971;SDS011;23794;48.234;8.344;2022-12-05T01:31:50;14.60;;;7.55;;
37971;SDS011;23794;48.234;8.344;2022-12-05T01:34:18;12.65;;;7.32;;
37971;SDS011;23794;48.234;8.344;2022-12-05T01:36:45;11.00;;;7.00;;
37971;SDS011;23794;48.234;8.344;2022-12-05T01:39:13;10.77;;;6.40;;
37971;SDS011;23794;48.234;8.344;2022-12-05T01:41:42;22.73;;;9.80;;
37971;SDS011;23794;48.234;8.344;2022-12-05T01:46:42;12.60;;;8.15;;
37971;SDS011;23794;48.234;8.344;2022-12-05T01:49:29;12.15;;;7.90;;
37971;SDS011;23794;48.234;8.344;2022-12-05T01:52:03;11.82;;;7.35;;
37971;SDS011;23794;48.234;8.344;2022-12-05T01:54:34;17.38;;;8.48;;
37971;SDS011;23794;48.234;8.344;2022-12-05T01:57:04;11.27;;;6.47;;
37971;SDS011;23794;48.234;8.344;2022-12-05T01:59:35;16.05;;;7.13;;
37971;SDS011;23794;48.234;8.344;2022-12-05T02:02:07;10.20;;;5.75;;
37971;SDS011;23794;48.234;8.344;2022-12-05T02:04:36;10.68;;;6.68;;
37971;SDS011;23794;48.234;8.344;2022-12-05T02:07:15;8.82;;;5.20;;
37971;SDS011;23794;48.234;8.344;2022-12-05T02:09:43;8.73;;;5.80;;
37971;SDS011;23794;48.234;8.344;2022-12-05T02:12:12;11.38;;;5.70;;
37971;SDS011;23794;48.234;8.344;2022-12-05T02:20:26;8.63;;;5.68;;
37971;SDS011;23794;48.234;8.344;2022-12-05T02:34:41;11.68;;;6.10;;
37971;SDS011;23794;48.234;8.344;2022-12-05T02:37:27;12.50;;;6.93;;
37971;SDS011;23794;48.234;8.344;2022-12-05T02:40:09;8.90;;;5.53;;
37971;SDS011;23794;48.234;8.344;2022-12-05T02:45:16;7.82;;;5.32;;
37971;SDS011;23794;48.234;8.344;2022-12-05T02:47:49;11.52;;;6.78;;
37971;SDS011;23794;48.234;8.344;2022-12-05T02:50:19;10.32;;;6.65;;
37971;SDS011;23794;48.234;8.344;2022-12-05T02:52:49;10.10;;;6.05;;
37971;SDS011;23794;48.234;8.344;2022-12-05T02:55:19;16.52;;;7.60;;
37971;SDS011;23794;48.234;8.344;2022-12-05T02:57:49;9.25;;;6.07;;
37971;SDS011;23794;48.234;8.344;2022-12-05T03:00:20;6.82;;;4.75;;
37971;SDS011;23794;48.234;8.344;2022-12-05T03:02:47;9.55;;;5.20;;
37971;SDS011;23794;48.234;8.344;2022-12-05T03:05:18;7.38;;;4.50;;
37971;SDS011;23794;48.234;8.344;2022-12-05T03:08:07;7.40;;;4.63;;
37971;SDS011;23794;48.234;8.344;2022-12-05T03:10:39;6.85;;;4.25;;
37971;SDS011;23794;48.234;8.344;2022-12-05T03:13:11;6.85;;;4.40;;
37971;SDS011;23794;48.234;8.344;2022-12-05T03:15:45;6.60;;;4.47;;
37971;SDS011;23794;48.234;8.344;2022-12-05T03:18:24;6.78;;;4.53;;
37971;SDS011;23794;48.234;8.344;2022-12-05T03:24:04;9.60;;;5.30;;
37971;SDS011;23794;48.234;8.344;2022-12-05T03:34:17;8.25;;;4.95;;
37971;SDS011;23794;48.234;8.344;2022-12-05T03:37:04;8.98;;;5.13;;
37971;SDS011;23794;48.234;8.344;2022-12-05T03:39:36;10.35;;;6.18;;
37971;SDS011;23794;48.234;8.344;2022-12-05T03:42:09;7.75;;;5.28;;
37971;SDS011;23794;48.234;8.344;2022-12-05T03:44:56;16.85;;;8.65;;
37971;SDS011;23794;48.234;8.344;2022-12-05T03:50:31;11.65;;;5.70;;
37971;SDS011;23794;48.234;8.344;2022-12-05T03:53:04;7.60;;;5.50;;
37971;SDS011;23794;48.234;8.344;2022-12-05T03:55:46;7.88;;;5.18;;
37971;SDS011;23794;48.234;8.344;2022-12-05T03:58:27;10.07;;;6.35;;
37971;SDS011;23794;48.234;8.344;2022-12-05T04:01:00;7.43;;;4.55;;
37971;SDS011;23794;48.234;8.344;2022-12-05T04:03:35;10.75;;;5.68;;
37971;SDS011;23794;48.234;8.344;2022-12-05T04:06:09;6.25;;;4.10;;
37971;SDS011;23794;48.234;8.344;2022-12-05T04:08:47;7.28;;;4.57;;
37971;SDS011;23794;48.234;8.344;2022-12-05T04:11:19;11.15;;;6.63;;
37971;SDS011;23794;48.234;8.344;2022-12-05T04:13:54;9.07;;;6.07;;
37971;SDS011;23794;48.234;8.344;2022-12-05T04:16:32;12.85;;;7.07;;
37971;SDS011;23794;48.234;8.344;2022-12-05T04:19:30;20.65;;;9.63;;
37971;SDS011;23794;48.234;8.344;2022-12-05T04:22:23;26.25;;;11.48;;
37971;SDS011;23794;48.234;8.344;2022-12-05T04:24:51;18.58;;;9.45;;
37971;SDS011;23794;48.234;8.344;2022-12-05T04:27:41;17.02;;;8.40;;
37971;SDS011;23794;48.234;8.344;2022-12-05T04:30:24;18.75;;;8.88;;
37971;SDS011;23794;48.234;8.344;2022-12-05T04:32:59;12.30;;;7.80;;
37971;SDS011;23794;48.234;8.344;2022-12-05T04:38:16;15.10;;;7.90;;
37971;SDS011;23794;48.234;8.344;2022-12-05T04:41:02;11.82;;;6.20;;
37971;SDS011;23794;48.234;8.344;2022-12-05T04:43:36;13.27;;;7.00;;
37971;SDS011;23794;48.234;8.344;2022-12-05T04:46:07;15.18;;;7.53;;
37971;SDS011;23794;48.234;8.344;2022-12-05T04:48:36;15.32;;;9.23;;
37971;SDS011;23794;48.234;8.344;2022-12-05T04:51:06;19.17;;;9.25;;
37971;SDS011;23794;48.234;8.344;2022-12-05T04:56:06;11.38;;;6.72;;
37971;SDS011;23794;48.234;8.344;2022-12-05T04:58:36;18.15;;;8.05;;
37971;SDS011;23794;48.234;8.344;2022-12-05T05:03:34;9.73;;;5.90;;
37971;SDS011;23794;48.234;8.344;2022-12-05T05:06:09;9.52;;;5.82;;
37971;SDS011;23794;48.234;8.344;2022-12-05T05:08:44;7.70;;;4.85;;
37971;SDS011;23794;48.234;8.344;2022-12-05T05:11:21;9.90;;;6.18;;
37971;SDS011;23794;48.234;8.344;2022-12-05T05:13:49;9.65;;;6.38;;
37971;SDS011;23794;48.234;8.344;2022-12-05T05:16:18;10.50;;;5.82;;
37971;SDS011;23794;48.234;8.344;2022-12-05T05:18:53;8.98;;;5.80;;
37971;SDS011;23794;48.234;8.344;2022-12-05T05:21:22;11.73;;;7.15;;
37971;SDS011;23794;48.234;8.344;2022-12-05T05:23:51;9.02;;;6.15;;
37971;SDS011;23794;48.234;8.344;2022-12-05T05:26:18;10.23;;;7.03;;
37971;SDS011;23794;48.234;8.344;2022-12-05T05:28:46;8.20;;;5.43;;
37971;SDS011;23794;48.234;8.344;2022-12-05T05:31:13;11.45;;;7.25;;
37971;SDS011;23794;48.234;8.344;2022-12-05T05:33:41;8.38;;;5.68;;
37971;SDS011;23794;48.234;8.344;2022-12-05T05:36:08;16.00;;;8.00;;
37971;SDS011;23794;48.234;8.344;2022-12-05T05:38:38;8.93;;;5.82;;
37971;SDS011;23794;48.234;8.344;2022-12-05T05:41:10;6.72;;;4.45;;
37971;SDS011;23794;48.234;8.344;2022-12-05T05:43:39;6.18;;;4.28;;
37971;SDS011;23794;48.234;8.344;2022-12-05T05:46:07;6.93;;;4.63;;
37971;SDS011;23794;48.234;8.344;2022-12-05T05:48:34;7.78;;;5.35;;
37971;SDS011;23794;48.234;8.344;2022-12-05T05:51:01;9.23;;;5.88;;
37971;SDS011;23794;48.234;8.344;2022-12-05T05:53:29;6.68;;;4.45;;
37971;SDS011;23794;48.234;8.344;2022-12-05T05:55:56;6.85;;;5.05;;
37971;SDS011;23794;48.234;8.344;2022-12-05T05:58:22;7.55;;;5.05;;
37971;SDS011;23794;48.234;8.344;2022-12-05T06:00:49;7.43;;;4.90;;
37971;SDS011;23794;48.234;8.344;2022-12-05T06:03:16;8.55;;;5.50;;
37971;SDS011;23794;48.234;8.344;2022-12-05T06:05:43;10.50;;;7.10;;
37971;SDS011;23794;48.234;8.344;2022-12-05T06:08:16;11.52;;;6.95;;
37971;SDS011;23794;48.234;8.344;2022-12-05T06:10:43;10.30;;;5.32;;
37971;SDS011;23794;48.234;8.344;2022-12-05T06:13:10;10.45;;;6.13;;
37971;SDS011;23794;48.234;8.344;2022-12-05T06:15:36;9.43;;;6.35;;
37971;SDS011;23794;48.234;8.344;2022-12-05T06:18:03;7.55;;;4.93;;
37971;SDS011;23794;48.234;8.344;2022-12-05T06:20:30;10.30;;;5.95;;
37971;SDS011;23794;48.234;8.344;2022-12-05T06:22:56;17.25;;;12.45;;
37971;SDS011;23794;48.234;8.344;2022-12-05T06:25:23;15.50;;;10.82;;
37971;SDS011;23794;48.234;8.344;2022-12-05T06:27:50;12.07;;;7.95;;
37971;SDS011;23794;48.234;8.344;2022-12-05T06:30:17;9.23;;;6.03;;
37971;SDS011;23794;48.234;8.344;2022-12-05T06:32:43;8.63;;;5.72;;
37971;SDS011;23794;48.234;8.344;2022-12-05T06:35:10;13.93;;;8.82;;
37971;SDS011;23794;48.234;8.344;2022-12-05T06:37:41;9.32;;;6.97;;
37971;SDS011;23794;48.234;8.344;2022-12-05T06:40:12;9.98;;;7.95;;
37971;SDS011;23794;48.234;8.344;2022-12-05T06:42:39;10.05;;;7.35;;
37971;SDS011;23794;48.234;8.344;2022-12-05T06:45:06;8.55;;;5.75;;
37971;SDS011;23794;48.234;8.344;2022-12-05T06:47:32;7.00;;;5.30;;
37971;SDS011;23794;48.234;8.344;2022-12-05T06:49:59;5.53;;;3.45;;
37971;SDS011;23794;48.234;8.344;2022-12-05T06:52:26;4.82;;;2.80;;
37971;SDS011;23794;48.234;8.344;2022-12-05T06:54:52;8.45;;;5.10;;
37971;SDS011;23794;48.234;8.344;2022-12-05T06:57:19;11.50;;;7.95;;
37971;SDS011;23794;48.234;8.344;2022-12-05T06:59:47;10.07;;;6.57;;
37971;SDS011;23794;48.234;8.344;2022-12-05T07:02:15;12.57;;;8.98;;
37971;SDS011;23794;48.234;8.344;2022-12-05T07:04:46;9.25;;;6.75;;
37971;SDS011;23794;48.234;8.344;2022-12-05T07:07:13;10.52;;;7.38;;
37971;SDS011;23794;48.234;8.344;2022-12-05T07:09:40;9.20;;;6.43;;
37971;SDS011;23794;48.234;8.344;2022-12-05T07:12:17;10.23;;;6.72;;
37971;SDS011;23794;48.234;8.344;2022-12-05T07:14:44;12.23;;;7.90;;
37971;SDS011;23794;48.234;8.344;2022-12-05T07:17:14;9.77;;;7.47;;
37971;SDS011;23794;48.234;8.344;2022-12-05T07:19:41;7.03;;;5.38;;
37971;SDS011;23794;48.234;8.344;2022-12-05T07:22:08;8.68;;;6.05;;
37971;SDS011;23794;48.234;8.344;2022-12-05T07:24:41;7.97;;;5.13;;
37971;SDS011;23794;48.234;8.344;2022-12-05T07:27:08;6.75;;;4.90;;
37971;SDS011;23794;48.234;8.344;2022-12-05T07:29:35;6.47;;;3.92;;
37971;SDS011;23794;48.234;8.344;2022-12-05T07:32:01;7.63;;;4.90;;
37971;SDS011;23794;48.234;8.344;2022-12-05T07:34:29;5.28;;;3.97;;
37971;SDS011;23794;48.234;8.344;2022-12-05T07:36:56;7.05;;;4.70;;
37971;SDS011;23794;48.234;8.344;2022-12-05T07:39:22;6.05;;;4.45;;
37971;SDS011;23794;48.234;8.344;2022-12-05T07:41:49;5.50;;;3.72;;
37971;SDS011;23794;48.234;8.344;2022-12-05T07:44:19;5.93;;;3.85;;
37971;SDS011;23794;48.234;8.344;2022-12-05T07:46:45;4.50;;;3.30;;
37971;SDS011;23794;48.234;8.344;2022-12-05T07:49:12;8.32;;;4.80;;
37971;SDS011;23794;48.234;8.344;2022-12-05T07:51:41;5.90;;;3.60;;
37971;SDS011;23794;48.234;8.344;2022-12-05T07:54:07;7.93;;;4.55;;
37971;SDS011;23794;48.234;8.344;2022-12-05T07:56:34;7.35;;;3.65;;
37971;SDS011;23794;48.234;8.344;2022-12-05T07:59:01;5.50;;;3.72;;
37971;SDS011;23794;48.234;8.344;2022-12-05T08:01:28;9.63;;;5.50;;
37971;SDS011;23794;48.234;8.344;2022-12-05T08:03:56;9.82;;;6.03;;
37971;SDS011;23794;48.234;8.344;2022-12-05T08:06:26;5.85;;;4.60;;
37971;SDS011;23794;48.234;8.344;2022-12-05T08:08:54;6.78;;;5.43;;
37971;SDS011;23794;48.234;8.344;2022-12-05T08:11:23;8.02;;;5.57;;
37971;SDS011;23794;48.234;8.344;2022-12-05T08:13:52;7.93;;;5.70;;
37971;SDS011;23794;48.234;8.344;2022-12-05T08:16:20;9.30;;;6.60;;
37971;SDS011;23794;48.234;8.344;2022-12-05T08:18:53;6.88;;;4.70;;
37971;SDS011;23794;48.234;8.344;2022-12-05T08:21:21;6.82;;;5.13;;
37971;SDS011;23794;48.234;8.344;2022-12-05T08:23:48;5.13;;;4.18;;
37971;SDS011;23794;48.234;8.344;2022-12-05T08:26:16;9.32;;;5.30;;
37971;SDS011;23794;48.234;8.344;2022-12-05T08:28:46;7.25;;;4.88;;
37971;SDS011;23794;48.234;8.344;2022-12-05T08:31:17;8.55;;;5.93;;
37971;SDS011;23794;48.234;8.344;2022-12-05T08:33:45;7.60;;;5.20;;
37971;SDS011;23794;48.234;8.344;2022-12-05T08:36:12;6.47;;;4.20;;
37971;SDS011;23794;48.234;8.344;2022-12-05T08:38:41;4.82;;;3.42;;
37971;SDS011;23794;48.234;8.344;2022-12-05T08:41:12;3.25;;;2.25;;
37971;SDS011;23794;48.234;8.344;2022-12-05T08:43:40;4.05;;;2.17;;
37971;SDS011;23794;48.234;8.344;2022-12-05T08:46:07;2.60;;;1.70;;
37971;SDS011;23794;48.234;8.344;2022-12-05T08:48:35;7.63;;;5.60;;
37971;SDS011;23794;48.234;8.344;2022-12-05T08:51:06;12.20;;;7.63;;
37971;SDS011;23794;48.234;8.344;2022-12-05T08:53:35;15.00;;;9.20;;
37971;SDS011;23794;48.234;8.344;2022-12-05T08:56:09;14.82;;;8.13;;
37971;SDS011;23794;48.234;8.344;2022-12-05T08:58:36;11.57;;;8.27;;
37971;SDS011;23794;48.234;8.344;2022-12-05T09:01:04;7.43;;;5.20;;
37971;SDS011;23794;48.234;8.344;2022-12-05T09:03:32;13.98;;;9.07;;
37971;SDS011;23794;48.234;8.344;2022-12-05T09:06:12;10.52;;;7.38;;
37971;SDS011;23794;48.234;8.344;2022-12-05T09:08:41;10.43;;;7.30;;
37971;SDS011;23794;48.234;8.344;2022-12-05T09:11:12;10.38;;;7.45;;
37971;SDS011;23794;48.234;8.344;2022-12-05T09:13:49;8.38;;;5.63;;
37971;SDS011;23794;48.234;8.344;2022-12-05T09:16:18;8.25;;;5.93;;
37971;SDS011;23794;48.234;8.344;2022-12-05T09:18:48;10.88;;;7.93;;
37971;SDS011;23794;48.234;8.344;2022-12-05T09:21:19;12.68;;;7.18;;
37971;SDS011;23794;48.234;8.344;2022-12-05T09:23:48;7.88;;;5.35;;
37971;SDS011;23794;48.234;8.344;2022-12-05T09:26:16;4.88;;;3.30;;
37971;SDS011;23794;48.234;8.344;2022-12-05T09:28:45;4.97;;;2.58;;
37971;SDS011;23794;48.234;8.344;2022-12-05T09:31:13;3.60;;;1.88;;
37971;SDS011;23794;48.234;8.344;2022-12-05T09:33:42;1.70;;;1.20;;
37971;SDS011;23794;48.234;8.344;2022-12-05T09:36:14;2.28;;;1.52;;
37971;SDS011;23794;48.234;8.344;2022-12-05T09:38:43;3.08;;;1.35;;
37971;SDS011;23794;48.234;8.344;2022-12-05T09:52:45;11.57;;;9.07;;
37971;SDS011;23794;48.234;8.344;2022-12-05T09:58:37;16.15;;;10.70;;
37971;SDS011;23794;48.234;8.344;2022-12-05T10:00:58;12.68;;;9.05;;
37971;SDS011;23794;48.234;8.344;2022-12-05T10:03:42;10.85;;;7.78;;
37971;SDS011;23794;48.234;8.344;2022-12-05T10:15:32;13.63;;;8.43;;
37971;SDS011;23794;48.234;8.344;2022-12-05T10:18:08;10.73;;;7.88;;
37971;SDS011;23794;48.234;8.344;2022-12-05T10:23:41;8.45;;;7.15;;
37971;SDS011;23794;48.234;8.344;2022-12-05T10:26:26;10.07;;;7.75;;
37971;SDS011;23794;48.234;8.344;2022-12-05T10:29:04;9.73;;;7.50;;
37971;SDS011;23794;48.234;8.344;2022-12-05T10:31:39;7.97;;;5.78;;
37971;SDS011;23794;48.234;8.344;2022-12-05T10:34:11;12.25;;;7.45;;
37971;SDS011;23794;48.234;8.344;2022-12-05T10:36:46;22.23;;;13.68;;
37971;SDS011;23794;48.234;8.344;2022-12-05T10:39:39;18.55;;;12.40;;
37971;SDS011;23794;48.234;8.344;2022-12-05T10:42:09;12.68;;;9.32;;
37971;SDS011;23794;48.234;8.344;2022-12-05T10:44:39;15.88;;;11.27;;
37971;SDS011;23794;48.234;8.344;2022-12-05T10:47:07;11.65;;;8.43;;
37971;SDS011;23794;48.234;8.344;2022-12-05T10:49:34;11.95;;;8.60;;
37971;SDS011;23794;48.234;8.344;2022-12-05T10:52:03;9.55;;;7.38;;
37971;SDS011;23794;48.234;8.344;2022-12-05T10:54:31;8.65;;;6.80;;
37971;SDS011;23794;48.234;8.344;2022-12-05T10:57:19;8.77;;;7.40;;
37971;SDS011;23794;48.234;8.344;2022-12-05T10:59:50;10.00;;;7.38;;
37971;SDS011;23794;48.234;8.344;2022-12-05T11:02:23;12.00;;;8.85;;
37971;SDS011;23794;48.234;8.344;2022-12-05T11:04:53;10.13;;;8.27;;
37971;SDS011;23794;48.234;8.344;2022-12-05T11:07:23;7.47;;;5.88;;
37971;SDS011;23794;48.234;8.344;2022-12-05T11:09:53;9.07;;;6.78;;
37971;SDS011;23794;48.234;8.344;2022-12-05T11:12:23;6.00;;;4.57;;
37971;SDS011;23794;48.234;8.344;2022-12-05T11:14:56;6.93;;;4.88;;
37971;SDS011;23794;48.234;8.344;2022-12-05T11:19:58;5.78;;;3.35;;
37971;SDS011;23794;48.234;8.344;2022-12-05T11:22:33;4.28;;;3.40;;
37971;SDS011;23794;48.234;8.344;2022-12-05T11:25:00;5.47;;;3.30;;
37971;SDS011;23794;48.234;8.344;2022-12-05T11:27:54;5.60;;;3.75;;
37971;SDS011;23794;48.234;8.344;2022-12-05T11:30:26;6.00;;;3.63;;
37971;SDS011;23794;48.234;8.344;2022-12-05T11:35:48;7.18;;;5.72;;
37971;SDS011;23794;48.234;8.344;2022-12-05T11:38:18;9.00;;;6.43;;
37971;SDS011;23794;48.234;8.344;2022-12-05T11:54:31;5.78;;;4.30;;
37971;SDS011;23794;48.234;8.344;2022-12-05T11:58:21;4.63;;;3.58;;
37971;SDS011;23794;48.234;8.344;2022-12-05T12:00:32;5.03;;;3.67;;
37971;SDS011;23794;48.234;8.344;2022-12-05T12:09:04;3.85;;;2.45;;
37971;SDS011;23794;48.234;8.344;2022-12-05T12:11:42;2.47;;;1.80;;
37971;SDS011;23794;48.234;8.344;2022-12-05T12:16:45;1.90;;;1.42;;
37971;SDS011;23794;48.234;8.344;2022-12-05T12:19:34;1.92;;;1.60;;
37971;SDS011;23794;48.234;8.344;2022-12-05T12:22:21;1.98;;;1.42;;
37971;SDS011;23794;48.234;8.344;2022-12-05T12:33:26;1.92;;;1.40;;
37971;SDS011;23794;48.234;8.344;2022-12-05T12:39:08;2.53;;;1.67;;
37971;SDS011;23794;48.234;8.344;2022-12-05T12:47:28;2.40;;;1.80;;
37971;SDS011;23794;48.234;8.344;2022-12-05T12:50:24;5.70;;;1.58;;
37971;SDS011;23794;48.234;8.344;2022-12-05T12:55:43;2.30;;;1.52;;
37971;SDS011;23794;48.234;8.344;2022-12-05T13:08:51;2.88;;;1.83;;
37971;SDS011;23794;48.234;8.344;2022-12-05T13:11:22;2.10;;;1.40;;
37971;SDS011;23794;48.234;8.344;2022-12-05T13:13:59;3.28;;;2.10;;
37971;SDS011;23794;48.234;8.344;2022-12-05T13:16:34;2.45;;;1.40;;
37971;SDS011;23794;48.234;8.344;2022-12-05T13:19:23;1.77;;;1.30;;
37971;SDS011;23794;48.234;8.344;2022-12-05T13:21:54;2.53;;;1.52;;
37971;SDS011;23794;48.234;8.344;2022-12-05T13:24:24;2.08;;;1.60;;
37971;SDS011;23794;48.234;8.344;2022-12-05T13:26:53;2.60;;;1.90;;
37971;SDS011;23794;48.234;8.344;2022-12-05T13:29:35;2.72;;;1.80;;
37971;SDS011;23794;48.234;8.344;2022-12-05T13:32:06;2.72;;;1.80;;
37971;SDS011;23794;48.234;8.344;2022-12-05T13:34:50;2.28;;;1.67;;
37971;SDS011;23794;48.234;8.344;2022-12-05T13:40:17;3.33;;;2.00;;
37971;SDS011;23794;48.234;8.344;2022-12-05T13:43:22;3.90;;;2.33;;
37971;SDS011;23794;48.234;8.344;2022-12-05T13:45:56;2.92;;;2.13;;
37971;SDS011;23794;48.234;8.344;2022-12-05T13:48:34;2.63;;;1.87;;
37971;SDS011;23794;48.234;8.344;2022-12-05T13:51:07;4.43;;;1.63;;
37971;SDS011;23794;48.234;8.344;2022-12-05T14:03:59;3.20;;;1.45;;
37971;SDS011;23794;48.234;8.344;2022-12-05T14:09:00;2.63;;;1.58;;
37971;SDS011;23794;48.234;8.344;2022-12-05T14:11:28;1.73;;;1.40;;
37971;SDS011;23794;48.234;8.344;2022-12-05T14:13:56;2.63;;;1.75;;
37971;SDS011;23794;48.234;8.344;2022-12-05T14:24:55;2.38;;;1.63;;
37971;SDS011;23794;48.234;8.344;2022-12-05T14:28:34;2.35;;;1.70;;
37971;SDS011;23794;48.234;8.344;2022-12-05T14:33:23;2.38;;;1.73;;
37971;SDS011;23794;48.234;8.344;2022-12-05T14:35:50;2.00;;;1.50;;
37971;SDS011;23794;48.234;8.344;2022-12-05T14:38:31;2.33;;;1.60;;
37971;SDS011;23794;48.234;8.344;2022-12-05T14:41:13;2.55;;;1.63;;
37971;SDS011;23794;48.234;8.344;2022-12-05T14:43:51;2.17;;;1.35;;
37971;SDS011;23794;48.234;8.344;2022-12-05T14:46:27;2.47;;;1.73;;
37971;SDS011;23794;48.234;8.344;2022-12-05T14:48:56;2.22;;;1.63;;
37971;SDS011;23794;48.234;8.344;2022-12-05T14:54:03;2.22;;;1.50;;
37971;SDS011;23794;48.234;8.344;2022-12-05T14:56:33;2.30;;;1.42;;
37971;SDS011;23794;48.234;8.344;2022-12-05T14:59:26;1.95;;;1.25;;
37971;SDS011;23794;48.234;8.344;2022-12-05T15:01:58;2.03;;;1.43;;
37971;SDS011;23794;48.234;8.344;2022-12-05T15:07:18;3.95;;;1.85;;
37971;SDS011;23794;48.234;8.344;2022-12-05T15:12:31;2.20;;;1.63;;
37971;SDS011;23794;48.234;8.344;2022-12-05T15:50:12;3.35;;;2.05;;
37971;SDS011;23794;48.234;8.344;2022-12-05T15:53:09;3.58;;;2.35;;
37971;SDS011;23794;48.234;8.344;2022-12-05T15:55:51;3.80;;;2.47;;
37971;SDS011;23794;48.234;8.344;2022-12-05T16:00:54;3.30;;;2.03;;
37971;SDS011;23794;48.234;8.344;2022-12-05T16:03:39;4.65;;;3.03;;
37971;SDS011;23794;48.234;8.344;2022-12-05T16:06:48;5.63;;;3.38;;
37971;SDS011;23794;48.234;8.344;2022-12-05T16:09:27;4.63;;;2.80;;
37971;SDS011;23794;48.234;8.344;2022-12-05T16:12:04;4.07;;;3.17;;
37971;SDS011;23794;48.234;8.344;2022-12-05T16:14:42;7.43;;;2.97;;
37971;SDS011;23794;48.234;8.344;2022-12-05T16:17:27;4.95;;;2.80;;
37971;SDS011;23794;48.234;8.344;2022-12-05T16:20:10;5.78;;;3.53;;
37971;SDS011;23794;48.234;8.344;2022-12-05T16:22:55;3.88;;;2.47;;
37971;SDS011;23794;48.234;8.344;2022-12-05T16:25:27;3.05;;;2.10;;
37971;SDS011;23794;48.234;8.344;2022-12-05T16:28:00;4.43;;;2.70;;
37971;SDS011;23794;48.234;8.344;2022-12-05T16:30:34;3.85;;;2.28;;
37971;SDS011;23794;48.234;8.344;2022-12-05T16:35:44;3.35;;;2.33;;
37971;SDS011;23794;48.234;8.344;2022-12-05T16:45:54;5.65;;;3.45;;
37971;SDS011;23794;48.234;8.344;2022-12-05T16:48:28;5.55;;;2.95;;
37971;SDS011;23794;48.234;8.344;2022-12-05T16:53:36;4.50;;;3.17;;
37971;SDS011;23794;48.234;8.344;2022-12-05T16:56:05;4.57;;;2.97;;
37971;SDS011;23794;48.234;8.344;2022-12-05T16:58:33;4.90;;;3.00;;
37971;SDS011;23794;48.234;8.344;2022-12-05T17:01:02;4.80;;;3.20;;
37971;SDS011;23794;48.234;8.344;2022-12-05T17:03:32;6.13;;;4.07;;
37971;SDS011;23794;48.234;8.344;2022-12-05T17:06:01;4.70;;;3.10;;
37971;SDS011;23794;48.234;8.344;2022-12-05T17:08:28;5.15;;;3.22;;
37971;SDS011;23794;48.234;8.344;2022-12-05T17:10:54;4.88;;;3.45;;
37971;SDS011;23794;48.234;8.344;2022-12-05T17:13:22;9.10;;;5.95;;
37971;SDS011;23794;48.234;8.344;2022-12-05T17:15:49;6.38;;;4.03;;
37971;SDS011;23794;48.234;8.344;2022-12-05T17:18:17;7.57;;;4.05;;
37971;SDS011;23794;48.234;8.344;2022-12-05T17:20:53;6.85;;;4.68;;
37971;SDS011;23794;48.234;8.344;2022-12-05T17:25:54;8.18;;;4.82;;
37971;SDS011;23794;48.234;8.344;2022-12-05T17:28:24;11.50;;;5.85;;
37971;SDS011;23794;48.234;8.344;2022-12-05T17:30:51;10.68;;;6.93;;
37971;SDS011;23794;48.234;8.344;2022-12-05T17:33:18;9.20;;;6.13;;
37971;SDS011;23794;48.234;8.344;2022-12-05T17:35:45;11.23;;;5.95;;
37971;SDS011;23794;48.234;8.344;2022-12-05T17:38:12;11.25;;;7.95;;
37971;SDS011;23794;48.234;8.344;2022-12-05T17:40:39;8.27;;;6.15;;
37971;SDS011;23794;48.234;8.344;2022-12-05T17:43:08;9.00;;;6.35;;
37971;SDS011;23794;48.234;8.344;2022-12-05T17:45:39;10.45;;;6.88;;
37971;SDS011;23794;48.234;8.344;2022-12-05T17:48:13;11.38;;;7.63;;
37971;SDS011;23794;48.234;8.344;2022-12-05T17:50:41;9.07;;;6.82;;
37971;SDS011;23794;48.234;8.344;2022-12-05T17:53:11;10.55;;;7.15;;
37971;SDS011;23794;48.234;8.344;2022-12-05T17:55:40;8.68;;;6.10;;
37971;SDS011;23794;48.234;8.344;2022-12-05T17:58:07;10.82;;;7.10;;
37971;SDS011;23794;48.234;8.344;2022-12-05T18:00:35;12.15;;;7.97;;
37971;SDS011;23794;48.234;8.344;2022-12-05T18:03:02;8.90;;;5.85;;
37971;SDS011;23794;48.234;8.344;2022-12-05T18:05:29;7.38;;;4.68;;
37971;SDS011;23794;48.234;8.344;2022-12-05T18:07:56;10.15;;;7.40;;
37971;SDS011;23794;48.234;8.344;2022-12-05T18:10:24;7.75;;;5.35;;
37971;SDS011;23794;48.234;8.344;2022-12-05T18:12:50;9.73;;;7.05;;
37971;SDS011;23794;48.234;8.344;2022-12-05T18:15:17;8.38;;;5.95;;
37971;SDS011;23794;48.234;8.344;2022-12-05T18:17:45;9.57;;;6.10;;
37971;SDS011;23794;48.234;8.344;2022-12-05T18:20:13;8.65;;;6.72;;
37971;SDS011;23794;48.234;8.344;2022-12-05T18:22:41;7.13;;;4.88;;
37971;SDS011;23794;48.234;8.344;2022-12-05T18:25:08;8.05;;;6.07;;
37971;SDS011;23794;48.234;8.344;2022-12-05T18:27:36;10.65;;;6.70;;
37971;SDS011;23794;48.234;8.344;2022-12-05T18:30:04;8.65;;;5.13;;
37971;SDS011;23794;48.234;8.344;2022-12-05T18:32:32;8.25;;;5.70;;
37971;SDS011;23794;48.234;8.344;2022-12-05T18:34:59;9.25;;;6.35;;
37971;SDS011;23794;48.234;8.344;2022-12-05T18:37:28;7.95;;;5.60;;
37971;SDS011;23794;48.234;8.344;2022-12-05T18:39:55;7.95;;;6.13;;
37971;SDS011;23794;48.234;8.344;2022-12-05T18:42:22;8.40;;;5.55;;
37971;SDS011;23794;48.234;8.344;2022-12-05T18:44:49;11.00;;;6.43;;
37971;SDS011;23794;48.234;8.344;2022-12-05T18:47:16;8.70;;;6.22;;